メインページ
METAR-TAF:

METAR-TAF

空港 :

アリス・スプリングス空港

アリススプリングス, オーストラリア

緯度: 23-48S, 経度: 133-53E, 海抜: 545m

現時点の気象観測

当レポートは28分前の14:00(UTC)に作成
無風
気温 10°C
湿度 62%
気圧 1021 hPa
視程10km以上

METAR: YBAS 241400Z AUTO 00000KT 9999 // NCD 10/03 Q1021 RF00.0/000.0

時間: 23:58 (14:28 UTC)

予報

当レポートは3時間14分前の11:14(UTC)に作成
予報は24日の 12時(UTC)から 25日の 12時(UTC)まで有効
北/北西の風 5kt
視程10km以上
1,500メートル以下は雲なし、積乱雲なし
25日の 00時(UTC)から 25日の 01時(UTC)まで徐々に
の風 8kt
視程10km以上
1,500メートル以下は雲なし、積乱雲なし
25日の 0400時(UTC)から
南東の風 7kt
視程10km以上
1,500メートル以下は雲なし、積乱雲なし

TAF: YBAS 241114Z 2412/2512 33005KT CAVOK BECMG 2500/2501 10008KT CAVOK FM250400 14007KT CAVOK

4,000以上の空港の気象観測と天気予報(METAR報とTAF報)

利用可能な観測所は地図上に黄色い丸と赤い丸で示す。

丸の上にカーソルを重ねると観測所名を参照できる。

次にクリックすると気象観測と天気予報を参照できる。

マップの切り替え:黒色「×」印の緑ボタンをクリックして拡大、「-」印の緑ボタンをクリックして縮小、緑色の三角印をクリックして隣りの地図に切り替え


METAR-TAF: